sensor_id;sensor_type;location;lat;lon;timestamp;P1;durP1;ratioP1;P2;durP2;ratioP2
22646;SDS011;11490;42.726;23.268;2022-12-07T00:01:35;21.50;;;10.85;;
22646;SDS011;11490;42.726;23.268;2022-12-07T00:04:04;18.52;;;9.90;;
22646;SDS011;11490;42.726;23.268;2022-12-07T00:06:34;13.57;;;9.18;;
22646;SDS011;11490;42.726;23.268;2022-12-07T00:09:02;15.13;;;8.80;;
22646;SDS011;11490;42.726;23.268;2022-12-07T00:11:28;37.47;;;18.63;;
22646;SDS011;11490;42.726;23.268;2022-12-07T00:13:54;35.60;;;15.30;;
22646;SDS011;11490;42.726;23.268;2022-12-07T00:16:22;18.83;;;10.20;;
22646;SDS011;11490;42.726;23.268;2022-12-07T00:18:49;19.35;;;9.65;;
22646;SDS011;11490;42.726;23.268;2022-12-07T00:21:16;17.27;;;8.90;;
22646;SDS011;11490;42.726;23.268;2022-12-07T00:23:44;105.85;;;45.40;;
22646;SDS011;11490;42.726;23.268;2022-12-07T00:26:20;139.25;;;61.00;;
22646;SDS011;11490;42.726;23.268;2022-12-07T00:28:52;24.65;;;14.23;;
22646;SDS011;11490;42.726;23.268;2022-12-07T00:31:23;19.95;;;9.38;;
22646;SDS011;11490;42.726;23.268;2022-12-07T00:33:51;22.25;;;13.82;;
22646;SDS011;11490;42.726;23.268;2022-12-07T00:36:21;33.75;;;14.82;;
22646;SDS011;11490;42.726;23.268;2022-12-07T00:38:48;22.85;;;12.80;;
22646;SDS011;11490;42.726;23.268;2022-12-07T00:41:18;22.90;;;13.85;;
22646;SDS011;11490;42.726;23.268;2022-12-07T00:43:48;19.48;;;12.73;;
22646;SDS011;11490;42.726;23.268;2022-12-07T00:46:14;18.42;;;11.25;;
22646;SDS011;11490;42.726;23.268;2022-12-07T00:48:40;29.15;;;12.02;;
22646;SDS011;11490;42.726;23.268;2022-12-07T00:51:06;27.73;;;13.32;;
22646;SDS011;11490;42.726;23.268;2022-12-07T00:53:35;22.30;;;12.98;;
22646;SDS011;11490;42.726;23.268;2022-12-07T00:56:10;18.75;;;11.90;;
22646;SDS011;11490;42.726;23.268;2022-12-07T00:58:37;21.70;;;12.55;;
22646;SDS011;11490;42.726;23.268;2022-12-07T01:01:04;22.05;;;12.20;;
22646;SDS011;11490;42.726;23.268;2022-12-07T01:03:30;19.95;;;12.40;;
22646;SDS011;11490;42.726;23.268;2022-12-07T01:05:56;22.08;;;12.70;;
22646;SDS011;11490;42.726;23.268;2022-12-07T01:08:23;22.05;;;13.40;;
22646;SDS011;11490;42.726;23.268;2022-12-07T01:10:49;20.70;;;12.05;;
22646;SDS011;11490;42.726;23.268;2022-12-07T01:13:32;32.33;;;14.20;;
22646;SDS011;11490;42.726;23.268;2022-12-07T01:16:00;31.50;;;15.02;;
22646;SDS011;11490;42.726;23.268;2022-12-07T01:18:28;31.40;;;13.85;;
22646;SDS011;11490;42.726;23.268;2022-12-07T01:21:00;24.95;;;13.50;;
22646;SDS011;11490;42.726;23.268;2022-12-07T01:23:34;24.08;;;13.48;;
22646;SDS011;11490;42.726;23.268;2022-12-07T01:26:01;23.60;;;12.38;;
22646;SDS011;11490;42.726;23.268;2022-12-07T01:28:29;24.05;;;14.65;;
22646;SDS011;11490;42.726;23.268;2022-12-07T01:30:59;27.83;;;12.98;;
22646;SDS011;11490;42.726;23.268;2022-12-07T01:33:30;23.67;;;12.32;;
22646;SDS011;11490;42.726;23.268;2022-12-07T01:36:16;23.35;;;12.70;;
22646;SDS011;11490;42.726;23.268;2022-12-07T01:38:44;21.33;;;12.68;;
22646;SDS011;11490;42.726;23.268;2022-12-07T01:41:11;21.52;;;12.85;;
22646;SDS011;11490;42.726;23.268;2022-12-07T01:44:06;21.85;;;12.65;;
22646;SDS011;11490;42.726;23.268;2022-12-07T01:46:34;29.50;;;14.95;;
22646;SDS011;11490;42.726;23.268;2022-12-07T01:48:59;25.52;;;14.23;;
22646;SDS011;11490;42.726;23.268;2022-12-07T01:51:26;29.83;;;14.35;;
22646;SDS011;11490;42.726;23.268;2022-12-07T01:53:53;28.33;;;13.40;;
22646;SDS011;11490;42.726;23.268;2022-12-07T01:56:20;18.65;;;13.32;;
22646;SDS011;11490;42.726;23.268;2022-12-07T01:58:49;24.05;;;13.43;;
22646;SDS011;11490;42.726;23.268;2022-12-07T02:01:16;24.00;;;12.63;;
22646;SDS011;11490;42.726;23.268;2022-12-07T02:03:42;21.42;;;11.65;;
22646;SDS011;11490;42.726;23.268;2022-12-07T02:06:10;21.75;;;12.85;;
22646;SDS011;11490;42.726;23.268;2022-12-07T02:08:39;19.70;;;11.13;;
22646;SDS011;11490;42.726;23.268;2022-12-07T02:11:05;22.98;;;12.55;;
22646;SDS011;11490;42.726;23.268;2022-12-07T02:13:33;23.58;;;12.60;;
22646;SDS011;11490;42.726;23.268;2022-12-07T02:30:00;25.58;;;14.77;;
22646;SDS011;11490;42.726;23.268;2022-12-07T02:35:20;22.27;;;13.10;;
22646;SDS011;11490;42.726;23.268;2022-12-07T02:38:38;32.25;;;14.77;;
22646;SDS011;11490;42.726;23.268;2022-12-07T02:41:10;21.17;;;13.32;;
22646;SDS011;11490;42.726;23.268;2022-12-07T02:46:42;25.02;;;14.00;;
22646;SDS011;11490;42.726;23.268;2022-12-07T02:49:09;25.67;;;11.77;;
22646;SDS011;11490;42.726;23.268;2022-12-07T02:51:40;23.75;;;14.05;;
22646;SDS011;11490;42.726;23.268;2022-12-07T02:54:17;26.23;;;14.13;;
22646;SDS011;11490;42.726;23.268;2022-12-07T03:06:57;19.98;;;12.00;;
22646;SDS011;11490;42.726;23.268;2022-12-07T03:09:37;19.67;;;11.57;;
22646;SDS011;11490;42.726;23.268;2022-12-07T03:12:12;21.27;;;13.10;;
22646;SDS011;11490;42.726;23.268;2022-12-07T03:14:45;19.23;;;12.88;;
22646;SDS011;11490;42.726;23.268;2022-12-07T03:17:21;26.67;;;13.48;;
22646;SDS011;11490;42.726;23.268;2022-12-07T03:19:51;20.30;;;13.32;;
22646;SDS011;11490;42.726;23.268;2022-12-07T03:22:20;24.98;;;14.10;;
22646;SDS011;11490;42.726;23.268;2022-12-07T03:24:48;23.23;;;12.48;;
22646;SDS011;11490;42.726;23.268;2022-12-07T03:27:21;21.15;;;11.88;;
22646;SDS011;11490;42.726;23.268;2022-12-07T03:29:51;19.92;;;12.27;;
22646;SDS011;11490;42.726;23.268;2022-12-07T03:32:31;21.70;;;13.98;;
22646;SDS011;11490;42.726;23.268;2022-12-07T03:37:59;23.30;;;14.68;;
22646;SDS011;11490;42.726;23.268;2022-12-07T03:41:27;24.52;;;14.50;;
22646;SDS011;11490;42.726;23.268;2022-12-07T03:43:40;28.35;;;15.13;;
22646;SDS011;11490;42.726;23.268;2022-12-07T03:48:54;24.38;;;15.57;;
22646;SDS011;11490;42.726;23.268;2022-12-07T03:54:15;23.38;;;14.60;;
22646;SDS011;11490;42.726;23.268;2022-12-07T03:56:48;20.67;;;13.18;;
22646;SDS011;11490;42.726;23.268;2022-12-07T03:59:15;23.05;;;14.68;;
22646;SDS011;11490;42.726;23.268;2022-12-07T04:01:43;22.30;;;13.80;;
22646;SDS011;11490;42.726;23.268;2022-12-07T04:04:09;25.38;;;15.70;;
22646;SDS011;11490;42.726;23.268;2022-12-07T04:06:34;22.73;;;15.20;;
22646;SDS011;11490;42.726;23.268;2022-12-07T04:08:59;18.00;;;10.70;;
22646;SDS011;11490;42.726;23.268;2022-12-07T04:11:25;27.80;;;13.02;;
22646;SDS011;11490;42.726;23.268;2022-12-07T04:13:50;20.27;;;13.43;;
22646;SDS011;11490;42.726;23.268;2022-12-07T04:16:34;20.40;;;11.73;;
22646;SDS011;11490;42.726;23.268;2022-12-07T04:18:59;20.52;;;11.63;;
22646;SDS011;11490;42.726;23.268;2022-12-07T04:21:25;22.10;;;13.65;;
22646;SDS011;11490;42.726;23.268;2022-12-07T04:23:50;18.30;;;12.20;;
22646;SDS011;11490;42.726;23.268;2022-12-07T04:26:16;23.15;;;12.73;;
22646;SDS011;11490;42.726;23.268;2022-12-07T04:28:41;17.77;;;11.30;;
22646;SDS011;11490;42.726;23.268;2022-12-07T04:31:06;21.55;;;12.95;;
22646;SDS011;11490;42.726;23.268;2022-12-07T04:33:32;23.48;;;12.25;;
22646;SDS011;11490;42.726;23.268;2022-12-07T04:35:57;20.70;;;11.52;;
22646;SDS011;11490;42.726;23.268;2022-12-07T04:38:22;24.85;;;12.02;;
22646;SDS011;11490;42.726;23.268;2022-12-07T04:40:48;22.30;;;13.50;;
22646;SDS011;11490;42.726;23.268;2022-12-07T04:43:13;16.55;;;11.00;;
22646;SDS011;11490;42.726;23.268;2022-12-07T04:45:38;22.02;;;12.65;;
22646;SDS011;11490;42.726;23.268;2022-12-07T04:48:04;20.08;;;11.75;;
22646;SDS011;11490;42.726;23.268;2022-12-07T04:50:29;24.10;;;12.95;;
22646;SDS011;11490;42.726;23.268;2022-12-07T04:52:55;26.95;;;13.48;;
22646;SDS011;11490;42.726;23.268;2022-12-07T04:55:20;20.30;;;12.80;;
22646;SDS011;11490;42.726;23.268;2022-12-07T04:57:46;20.02;;;11.60;;
22646;SDS011;11490;42.726;23.268;2022-12-07T05:00:11;22.38;;;13.27;;
22646;SDS011;11490;42.726;23.268;2022-12-07T05:02:36;22.90;;;12.57;;
22646;SDS011;11490;42.726;23.268;2022-12-07T05:05:02;18.45;;;11.70;;
22646;SDS011;11490;42.726;23.268;2022-12-07T05:07:27;22.05;;;12.10;;
22646;SDS011;11490;42.726;23.268;2022-12-07T05:09:53;22.15;;;12.40;;
22646;SDS011;11490;42.726;23.268;2022-12-07T05:12:18;18.58;;;12.30;;
22646;SDS011;11490;42.726;23.268;2022-12-07T05:14:43;29.10;;;14.32;;
22646;SDS011;11490;42.726;23.268;2022-12-07T05:17:09;27.02;;;16.08;;
22646;SDS011;11490;42.726;23.268;2022-12-07T05:19:36;28.83;;;16.05;;
22646;SDS011;11490;42.726;23.268;2022-12-07T05:22:01;31.30;;;17.55;;
22646;SDS011;11490;42.726;23.268;2022-12-07T05:24:27;24.42;;;17.38;;
22646;SDS011;11490;42.726;23.268;2022-12-07T05:26:52;28.63;;;16.50;;
22646;SDS011;11490;42.726;23.268;2022-12-07T05:29:17;27.90;;;16.83;;
22646;SDS011;11490;42.726;23.268;2022-12-07T05:31:43;37.40;;;16.88;;
22646;SDS011;11490;42.726;23.268;2022-12-07T05:34:09;31.08;;;16.98;;
22646;SDS011;11490;42.726;23.268;2022-12-07T05:36:35;38.60;;;19.00;;
22646;SDS011;11490;42.726;23.268;2022-12-07T05:39:00;33.95;;;20.48;;
22646;SDS011;11490;42.726;23.268;2022-12-07T05:41:26;34.85;;;19.25;;
22646;SDS011;11490;42.726;23.268;2022-12-07T05:44:10;27.90;;;16.65;;
22646;SDS011;11490;42.726;23.268;2022-12-07T05:46:35;25.83;;;18.15;;
22646;SDS011;11490;42.726;23.268;2022-12-07T05:49:01;33.83;;;18.02;;
22646;SDS011;11490;42.726;23.268;2022-12-07T05:51:27;44.78;;;20.80;;
22646;SDS011;11490;42.726;23.268;2022-12-07T05:53:53;33.58;;;20.80;;
22646;SDS011;11490;42.726;23.268;2022-12-07T05:56:18;38.83;;;22.60;;
22646;SDS011;11490;42.726;23.268;2022-12-07T05:58:43;34.80;;;20.92;;
22646;SDS011;11490;42.726;23.268;2022-12-07T06:01:27;28.88;;;15.73;;
22646;SDS011;11490;42.726;23.268;2022-12-07T06:03:53;37.08;;;25.58;;
22646;SDS011;11490;42.726;23.268;2022-12-07T06:06:18;33.45;;;20.60;;
22646;SDS011;11490;42.726;23.268;2022-12-07T06:08:44;36.88;;;22.85;;
22646;SDS011;11490;42.726;23.268;2022-12-07T06:11:10;36.53;;;21.30;;
22646;SDS011;11490;42.726;23.268;2022-12-07T06:13:53;35.42;;;20.00;;
22646;SDS011;11490;42.726;23.268;2022-12-07T06:16:19;34.05;;;20.48;;
22646;SDS011;11490;42.726;23.268;2022-12-07T06:18:44;35.05;;;21.27;;
22646;SDS011;11490;42.726;23.268;2022-12-07T06:21:09;35.42;;;20.95;;
22646;SDS011;11490;42.726;23.268;2022-12-07T06:23:35;36.80;;;20.15;;
22646;SDS011;11490;42.726;23.268;2022-12-07T06:26:00;44.05;;;24.77;;
22646;SDS011;11490;42.726;23.268;2022-12-07T06:28:25;42.47;;;24.13;;
22646;SDS011;11490;42.726;23.268;2022-12-07T06:31:00;45.00;;;26.27;;
22646;SDS011;11490;42.726;23.268;2022-12-07T06:33:27;33.22;;;21.05;;
22646;SDS011;11490;42.726;23.268;2022-12-07T06:35:53;33.90;;;22.35;;
22646;SDS011;11490;42.726;23.268;2022-12-07T06:38:18;34.45;;;20.42;;
22646;SDS011;11490;42.726;23.268;2022-12-07T06:40:44;40.70;;;20.33;;
22646;SDS011;11490;42.726;23.268;2022-12-07T06:43:09;32.72;;;20.33;;
22646;SDS011;11490;42.726;23.268;2022-12-07T06:45:35;37.00;;;21.40;;
22646;SDS011;11490;42.726;23.268;2022-12-07T06:48:00;32.15;;;16.92;;
22646;SDS011;11490;42.726;23.268;2022-12-07T06:50:25;30.13;;;17.50;;
22646;SDS011;11490;42.726;23.268;2022-12-07T06:52:52;38.47;;;18.42;;
22646;SDS011;11490;42.726;23.268;2022-12-07T06:55:18;24.35;;;15.45;;
22646;SDS011;11490;42.726;23.268;2022-12-07T06:57:43;31.70;;;16.50;;
22646;SDS011;11490;42.726;23.268;2022-12-07T07:00:09;27.88;;;15.57;;
22646;SDS011;11490;42.726;23.268;2022-12-07T07:02:35;30.33;;;17.98;;
22646;SDS011;11490;42.726;23.268;2022-12-07T07:05:01;27.13;;;17.15;;
22646;SDS011;11490;42.726;23.268;2022-12-07T07:07:26;39.50;;;20.25;;
22646;SDS011;11490;42.726;23.268;2022-12-07T07:09:52;43.00;;;23.45;;
22646;SDS011;11490;42.726;23.268;2022-12-07T07:12:17;61.50;;;28.35;;
22646;SDS011;11490;42.726;23.268;2022-12-07T07:14:42;51.92;;;29.88;;
22646;SDS011;11490;42.726;23.268;2022-12-07T07:17:08;56.88;;;27.15;;
22646;SDS011;11490;42.726;23.268;2022-12-07T07:19:33;73.75;;;32.67;;
22646;SDS011;11490;42.726;23.268;2022-12-07T07:21:59;61.47;;;32.03;;
22646;SDS011;11490;42.726;23.268;2022-12-07T07:24:24;60.80;;;29.42;;
22646;SDS011;11490;42.726;23.268;2022-12-07T07:26:49;67.18;;;34.65;;
22646;SDS011;11490;42.726;23.268;2022-12-07T07:29:15;61.05;;;31.92;;
22646;SDS011;11490;42.726;23.268;2022-12-07T07:31:40;43.95;;;24.85;;
22646;SDS011;11490;42.726;23.268;2022-12-07T07:34:05;35.22;;;20.27;;
22646;SDS011;11490;42.726;23.268;2022-12-07T07:36:31;32.17;;;16.75;;
22646;SDS011;11490;42.726;23.268;2022-12-07T07:38:56;23.50;;;14.18;;
22646;SDS011;11490;42.726;23.268;2022-12-07T07:41:21;23.20;;;12.93;;
22646;SDS011;11490;42.726;23.268;2022-12-07T07:43:47;24.65;;;13.07;;
22646;SDS011;11490;42.726;23.268;2022-12-07T07:46:12;23.92;;;14.00;;
22646;SDS011;11490;42.726;23.268;2022-12-07T07:48:37;27.85;;;13.15;;
22646;SDS011;11490;42.726;23.268;2022-12-07T07:51:06;31.75;;;14.05;;
22646;SDS011;11490;42.726;23.268;2022-12-07T07:53:33;26.73;;;13.38;;
22646;SDS011;11490;42.726;23.268;2022-12-07T07:55:58;24.60;;;12.90;;
22646;SDS011;11490;42.726;23.268;2022-12-07T07:58:24;23.10;;;14.30;;
22646;SDS011;11490;42.726;23.268;2022-12-07T08:00:49;24.67;;;14.35;;
22646;SDS011;11490;42.726;23.268;2022-12-07T08:03:15;25.88;;;13.98;;
22646;SDS011;11490;42.726;23.268;2022-12-07T08:05:40;29.65;;;16.92;;
22646;SDS011;11490;42.726;23.268;2022-12-07T08:08:06;48.15;;;23.38;;
22646;SDS011;11490;42.726;23.268;2022-12-07T08:10:40;44.78;;;21.10;;
22646;SDS011;11490;42.726;23.268;2022-12-07T08:13:08;28.40;;;15.25;;
22646;SDS011;11490;42.726;23.268;2022-12-07T08:15:37;108.32;;;53.25;;
22646;SDS011;11490;42.726;23.268;2022-12-07T08:18:04;128.70;;;66.55;;
22646;SDS011;11490;42.726;23.268;2022-12-07T08:20:30;166.52;;;89.07;;
22646;SDS011;11490;42.726;23.268;2022-12-07T08:22:57;107.47;;;62.33;;
22646;SDS011;11490;42.726;23.268;2022-12-07T08:25:23;30.35;;;20.60;;
22646;SDS011;11490;42.726;23.268;2022-12-07T08:27:48;66.95;;;35.55;;
22646;SDS011;11490;42.726;23.268;2022-12-07T08:30:14;27.30;;;14.93;;
22646;SDS011;11490;42.726;23.268;2022-12-07T08:32:40;26.60;;;14.93;;
22646;SDS011;11490;42.726;23.268;2022-12-07T08:35:05;25.08;;;16.55;;
22646;SDS011;11490;42.726;23.268;2022-12-07T08:37:31;27.48;;;14.95;;
22646;SDS011;11490;42.726;23.268;2022-12-07T08:39:57;26.88;;;13.88;;
22646;SDS011;11490;42.726;23.268;2022-12-07T08:42:22;27.65;;;14.95;;
22646;SDS011;11490;42.726;23.268;2022-12-07T08:44:52;24.35;;;14.90;;
22646;SDS011;11490;42.726;23.268;2022-12-07T08:47:18;28.80;;;14.23;;
22646;SDS011;11490;42.726;23.268;2022-12-07T08:49:45;30.90;;;17.15;;
22646;SDS011;11490;42.726;23.268;2022-12-07T08:52:14;26.55;;;15.45;;
22646;SDS011;11490;42.726;23.268;2022-12-07T08:54:40;29.02;;;16.70;;
22646;SDS011;11490;42.726;23.268;2022-12-07T08:57:07;29.70;;;16.60;;
22646;SDS011;11490;42.726;23.268;2022-12-07T08:59:34;31.60;;;19.52;;
22646;SDS011;11490;42.726;23.268;2022-12-07T09:02:02;30.38;;;18.48;;
22646;SDS011;11490;42.726;23.268;2022-12-07T09:04:28;35.17;;;21.38;;
22646;SDS011;11490;42.726;23.268;2022-12-07T09:06:54;37.95;;;18.58;;
22646;SDS011;11490;42.726;23.268;2022-12-07T09:09:20;33.80;;;20.13;;
22646;SDS011;11490;42.726;23.268;2022-12-07T09:11:45;42.58;;;23.70;;
22646;SDS011;11490;42.726;23.268;2022-12-07T09:14:11;37.25;;;17.00;;
22646;SDS011;11490;42.726;23.268;2022-12-07T09:16:37;22.27;;;15.75;;
22646;SDS011;11490;42.726;23.268;2022-12-07T09:19:03;25.58;;;14.30;;
22646;SDS011;11490;42.726;23.268;2022-12-07T09:21:29;32.72;;;16.00;;
22646;SDS011;11490;42.726;23.268;2022-12-07T09:23:54;35.17;;;17.95;;
22646;SDS011;11490;42.726;23.268;2022-12-07T09:26:20;42.17;;;21.23;;
22646;SDS011;11490;42.726;23.268;2022-12-07T09:28:45;27.77;;;16.45;;
22646;SDS011;11490;42.726;23.268;2022-12-07T09:31:11;29.60;;;15.27;;
22646;SDS011;11490;42.726;23.268;2022-12-07T09:33:36;27.90;;;15.55;;
22646;SDS011;11490;42.726;23.268;2022-12-07T09:36:02;191.88;;;70.55;;
22646;SDS011;11490;42.726;23.268;2022-12-07T09:38:28;38.13;;;19.33;;
22646;SDS011;11490;42.726;23.268;2022-12-07T09:40:54;36.72;;;19.25;;
22646;SDS011;11490;42.726;23.268;2022-12-07T09:43:21;29.30;;;18.38;;
22646;SDS011;11490;42.726;23.268;2022-12-07T09:45:53;24.63;;;16.88;;
22646;SDS011;11490;42.726;23.268;2022-12-07T09:48:21;43.00;;;18.85;;
22646;SDS011;11490;42.726;23.268;2022-12-07T09:50:50;38.70;;;19.80;;
22646;SDS011;11490;42.726;23.268;2022-12-07T09:53:26;25.95;;;15.75;;
22646;SDS011;11490;42.726;23.268;2022-12-07T09:55:53;31.77;;;15.45;;
22646;SDS011;11490;42.726;23.268;2022-12-07T09:58:23;36.03;;;18.55;;
22646;SDS011;11490;42.726;23.268;2022-12-07T10:04:56;29.85;;;17.80;;
22646;SDS011;11490;42.726;23.268;2022-12-07T10:07:57;35.38;;;17.42;;
22646;SDS011;11490;42.726;23.268;2022-12-07T10:10:34;40.22;;;18.50;;
22646;SDS011;11490;42.726;23.268;2022-12-07T10:13:10;33.50;;;16.95;;
22646;SDS011;11490;42.726;23.268;2022-12-07T10:15:41;34.20;;;19.50;;
22646;SDS011;11490;42.726;23.268;2022-12-07T10:18:27;35.22;;;19.80;;
22646;SDS011;11490;42.726;23.268;2022-12-07T10:21:16;35.70;;;19.27;;
22646;SDS011;11490;42.726;23.268;2022-12-07T10:24:01;44.55;;;19.15;;
22646;SDS011;11490;42.726;23.268;2022-12-07T10:26:36;32.47;;;19.27;;
22646;SDS011;11490;42.726;23.268;2022-12-07T10:29:14;32.38;;;19.90;;
22646;SDS011;11490;42.726;23.268;2022-12-07T10:31:41;33.60;;;19.65;;
22646;SDS011;11490;42.726;23.268;2022-12-07T10:34:30;37.20;;;22.25;;
22646;SDS011;11490;42.726;23.268;2022-12-07T10:37:28;33.42;;;18.13;;
22646;SDS011;11490;42.726;23.268;2022-12-07T10:39:55;42.40;;;25.88;;
22646;SDS011;11490;42.726;23.268;2022-12-07T10:42:30;42.40;;;24.60;;
22646;SDS011;11490;42.726;23.268;2022-12-07T10:45:15;48.78;;;27.67;;
22646;SDS011;11490;42.726;23.268;2022-12-07T10:48:08;32.88;;;18.48;;
22646;SDS011;11490;42.726;23.268;2022-12-07T10:53:52;55.38;;;23.30;;
22646;SDS011;11490;42.726;23.268;2022-12-07T10:56:44;40.80;;;20.58;;
22646;SDS011;11490;42.726;23.268;2022-12-07T11:04:59;33.22;;;20.80;;
22646;SDS011;11490;42.726;23.268;2022-12-07T11:13:25;35.85;;;20.52;;
22646;SDS011;11490;42.726;23.268;2022-12-07T11:16:23;33.30;;;17.88;;
22646;SDS011;11490;42.726;23.268;2022-12-07T11:19:52;35.50;;;18.05;;
22646;SDS011;11490;42.726;23.268;2022-12-07T11:22:28;41.65;;;21.70;;
22646;SDS011;11490;42.726;23.268;2022-12-07T11:33:33;26.02;;;16.00;;
22646;SDS011;11490;42.726;23.268;2022-12-07T11:38:50;20.73;;;13.68;;
22646;SDS011;11490;42.726;23.268;2022-12-07T11:41:21;19.65;;;12.30;;
22646;SDS011;11490;42.726;23.268;2022-12-07T11:43:52;21.55;;;13.65;;
22646;SDS011;11490;42.726;23.268;2022-12-07T11:46:22;21.83;;;10.75;;
22646;SDS011;11490;42.726;23.268;2022-12-07T11:51:29;19.15;;;11.73;;
22646;SDS011;11490;42.726;23.268;2022-12-07T11:54:17;14.93;;;9.63;;
22646;SDS011;11490;42.726;23.268;2022-12-07T11:56:54;15.68;;;8.73;;
22646;SDS011;11490;42.726;23.268;2022-12-07T11:59:38;17.67;;;9.82;;
22646;SDS011;11490;42.726;23.268;2022-12-07T12:02:16;14.27;;;8.85;;
22646;SDS011;11490;42.726;23.268;2022-12-07T12:07:23;21.50;;;10.63;;
22646;SDS011;11490;42.726;23.268;2022-12-07T12:09:54;17.17;;;9.65;;
22646;SDS011;11490;42.726;23.268;2022-12-07T12:15:09;22.27;;;10.52;;
22646;SDS011;11490;42.726;23.268;2022-12-07T12:21:10;16.02;;;10.07;;
22646;SDS011;11490;42.726;23.268;2022-12-07T12:26:33;21.23;;;11.85;;
22646;SDS011;11490;42.726;23.268;2022-12-07T12:29:17;17.33;;;11.25;;
22646;SDS011;11490;42.726;23.268;2022-12-07T12:32:04;14.95;;;9.23;;
22646;SDS011;11490;42.726;23.268;2022-12-07T12:34:58;14.60;;;9.82;;
22646;SDS011;11490;42.726;23.268;2022-12-07T12:40:41;18.98;;;10.98;;
22646;SDS011;11490;42.726;23.268;2022-12-07T12:42:56;18.33;;;10.52;;
22646;SDS011;11490;42.726;23.268;2022-12-07T12:45:33;21.48;;;9.45;;
22646;SDS011;11490;42.726;23.268;2022-12-07T12:48:03;22.50;;;11.05;;
22646;SDS011;11490;42.726;23.268;2022-12-07T12:50:33;17.27;;;10.50;;
22646;SDS011;11490;42.726;23.268;2022-12-07T12:55:41;19.42;;;10.98;;
22646;SDS011;11490;42.726;23.268;2022-12-07T13:00:48;25.42;;;12.02;;
22646;SDS011;11490;42.726;23.268;2022-12-07T13:03:52;24.65;;;13.10;;
22646;SDS011;11490;42.726;23.268;2022-12-07T13:06:40;23.10;;;10.85;;
22646;SDS011;11490;42.726;23.268;2022-12-07T13:09:15;25.48;;;11.98;;
22646;SDS011;11490;42.726;23.268;2022-12-07T13:11:47;18.58;;;8.40;;
22646;SDS011;11490;42.726;23.268;2022-12-07T13:17:07;20.05;;;9.43;;
22646;SDS011;11490;42.726;23.268;2022-12-07T13:24:57;140.77;;;53.33;;
22646;SDS011;11490;42.726;23.268;2022-12-07T13:27:37;42.88;;;18.60;;
22646;SDS011;11490;42.726;23.268;2022-12-07T13:30:23;72.35;;;33.83;;
22646;SDS011;11490;42.726;23.268;2022-12-07T13:32:56;29.92;;;15.98;;
22646;SDS011;11490;42.726;23.268;2022-12-07T13:35:36;21.45;;;10.88;;
22646;SDS011;11490;42.726;23.268;2022-12-07T13:38:25;47.78;;;28.98;;
22646;SDS011;11490;42.726;23.268;2022-12-07T13:43:52;28.75;;;17.40;;
22646;SDS011;11490;42.726;23.268;2022-12-07T13:46:25;25.55;;;13.85;;
22646;SDS011;11490;42.726;23.268;2022-12-07T13:48:56;23.23;;;13.95;;
22646;SDS011;11490;42.726;23.268;2022-12-07T13:51:25;19.17;;;9.50;;
22646;SDS011;11490;42.726;23.268;2022-12-07T13:56:51;21.67;;;12.27;;
22646;SDS011;11490;42.726;23.268;2022-12-07T13:59:21;22.30;;;13.15;;
22646;SDS011;11490;42.726;23.268;2022-12-07T14:01:49;27.20;;;14.60;;
22646;SDS011;11490;42.726;23.268;2022-12-07T14:04:19;25.25;;;16.20;;
22646;SDS011;11490;42.726;23.268;2022-12-07T14:06:51;22.75;;;12.77;;
22646;SDS011;11490;42.726;23.268;2022-12-07T14:09:29;17.00;;;10.93;;
22646;SDS011;11490;42.726;23.268;2022-12-07T14:11:56;17.02;;;11.00;;
22646;SDS011;11490;42.726;23.268;2022-12-07T14:14:23;14.23;;;9.15;;
22646;SDS011;11490;42.726;23.268;2022-12-07T14:22:19;13.18;;;9.23;;
22646;SDS011;11490;42.726;23.268;2022-12-07T14:24:59;18.02;;;10.45;;
22646;SDS011;11490;42.726;23.268;2022-12-07T14:27:29;26.00;;;11.90;;
22646;SDS011;11490;42.726;23.268;2022-12-07T14:30:14;28.65;;;12.68;;
22646;SDS011;11490;42.726;23.268;2022-12-07T14:32:41;20.27;;;12.27;;
22646;SDS011;11490;42.726;23.268;2022-12-07T14:35:14;24.77;;;13.13;;
22646;SDS011;11490;42.726;23.268;2022-12-07T14:37:43;55.67;;;20.52;;
22646;SDS011;11490;42.726;23.268;2022-12-07T14:40:17;38.15;;;17.45;;
22646;SDS011;11490;42.726;23.268;2022-12-07T14:42:45;26.45;;;14.68;;
22646;SDS011;11490;42.726;23.268;2022-12-07T14:45:16;33.70;;;17.20;;
22646;SDS011;11490;42.726;23.268;2022-12-07T14:47:45;29.23;;;15.52;;
22646;SDS011;11490;42.726;23.268;2022-12-07T14:50:12;78.75;;;29.90;;
22646;SDS011;11490;42.726;23.268;2022-12-07T14:52:39;62.78;;;27.75;;
22646;SDS011;11490;42.726;23.268;2022-12-07T14:58:17;84.35;;;36.38;;
22646;SDS011;11490;42.726;23.268;2022-12-07T15:00:43;76.63;;;39.75;;
22646;SDS011;11490;42.726;23.268;2022-12-07T15:03:12;76.13;;;38.20;;
22646;SDS011;11490;42.726;23.268;2022-12-07T15:05:38;70.95;;;33.90;;
22646;SDS011;11490;42.726;23.268;2022-12-07T15:08:04;64.03;;;29.35;;
22646;SDS011;11490;42.726;23.268;2022-12-07T15:10:32;53.88;;;30.25;;
22646;SDS011;11490;42.726;23.268;2022-12-07T15:12:59;60.90;;;33.80;;
22646;SDS011;11490;42.726;23.268;2022-12-07T15:15:44;72.60;;;41.30;;
22646;SDS011;11490;42.726;23.268;2022-12-07T15:18:11;75.05;;;40.92;;
22646;SDS011;11490;42.726;23.268;2022-12-07T15:20:36;67.60;;;36.13;;
22646;SDS011;11490;42.726;23.268;2022-12-07T15:23:02;63.50;;;33.35;;
22646;SDS011;11490;42.726;23.268;2022-12-07T15:25:30;54.88;;;29.48;;
22646;SDS011;11490;42.726;23.268;2022-12-07T15:27:55;53.22;;;30.83;;
22646;SDS011;11490;42.726;23.268;2022-12-07T15:30:23;56.00;;;27.58;;
22646;SDS011;11490;42.726;23.268;2022-12-07T15:32:51;54.42;;;30.75;;
22646;SDS011;11490;42.726;23.268;2022-12-07T15:35:33;65.18;;;33.05;;
22646;SDS011;11490;42.726;23.268;2022-12-07T15:38:18;83.97;;;37.45;;
22646;SDS011;11490;42.726;23.268;2022-12-07T15:40:51;80.10;;;41.90;;
22646;SDS011;11490;42.726;23.268;2022-12-07T15:43:16;81.72;;;38.58;;
22646;SDS011;11490;42.726;23.268;2022-12-07T15:46:00;74.65;;;41.25;;
22646;SDS011;11490;42.726;23.268;2022-12-07T15:48:26;95.70;;;39.83;;
22646;SDS011;11490;42.726;23.268;2022-12-07T15:50:51;94.40;;;41.08;;
22646;SDS011;11490;42.726;23.268;2022-12-07T15:53:17;92.55;;;44.45;;
22646;SDS011;11490;42.726;23.268;2022-12-07T15:55:42;95.82;;;42.80;;
22646;SDS011;11490;42.726;23.268;2022-12-07T15:58:07;107.95;;;46.00;;
22646;SDS011;11490;42.726;23.268;2022-12-07T16:00:33;98.72;;;47.03;;
22646;SDS011;11490;42.726;23.268;2022-12-07T16:02:58;107.43;;;45.75;;
22646;SDS011;11490;42.726;23.268;2022-12-07T16:05:24;101.18;;;45.10;;
22646;SDS011;11490;42.726;23.268;2022-12-07T16:07:49;88.50;;;43.38;;
22646;SDS011;11490;42.726;23.268;2022-12-07T16:10:15;100.90;;;43.15;;
22646;SDS011;11490;42.726;23.268;2022-12-07T16:12:40;98.93;;;44.08;;
22646;SDS011;11490;42.726;23.268;2022-12-07T16:15:06;82.70;;;40.88;;
22646;SDS011;11490;42.726;23.268;2022-12-07T16:17:32;96.20;;;43.65;;
22646;SDS011;11490;42.726;23.268;2022-12-07T16:19:57;100.32;;;44.40;;